SBOSBO ABZ / EGPD
Speedbird OnlineSpeedbird Online ABZ / EGPD

Aberdeen Dyce Airport
22:22 7.9°C

Location Aberdeen, United Kingdom
Latitude: 57.201900482177734
Longitude: -2.197779893875122
Local Time 22:22 on 18 Apr 2024
UTC +1 hours (Europe/London)
METAR EGPD 182050Z AUTO 30012KT 9999 -RA SCT032 BKN042 08/06 Q1009 NOSIG
TAF TAF EGPD 181659Z 1818/1918 30012KT 9999 SCT030 PROB30 TEMPO 1818/1907 31015G25KT PROB30 TEMPO 1818/1902 5000 SHRA BKN012 BECMG 1907/1910 34018G28KT BECMG 1916/1918 34012KT
Weather As Of 18 Apr 2024 22:22
Description Light rain
Wind 22 km/h from North-West (300°)
Cloud Cover 75%
Precipitation Rain: none, Snow: none
Sunrise 05:51
Sunset 20:24
NOTAM 3 active NOTAM
Rotations During the last 90 days there were
503 flights from LHR
1 flights from EDI
1 flights from INV
493 flights to LHR
Lounges British Airways Lounge, Main Terminal
Web Airport Website | Wikipedia
Codes IATA: ABZ
ICAO: EGPD
Altitude 66 Meter / 215 Feet
Distance 650 KM / 404 Miles
from London.
Runways
RunwayLength (m)Surface
05577Concrete
14660Asphalt
161953Asphalt
18260Asphalt
23577Concrete
32660Asphalt
341953Asphalt
36260Asphalt
Radio
TypeDescriptionFrequency
APPABERDEEN APP119.055
ATISABERDEEN ATIS121.855
GNDABERDEEN GND121.705
INFOABERDEEN INFO135.175
RADARAberdeen Director128.305
RDRAberdeen Offshore Radar134.1
TWRABERDEEN TWR118.105
Live ATC



Support Speedbird Online

© 2017-2024 Speedbird Online